Terminal Aerodrome Forecast
Issued by NWS

Home | Current Version | Previous Version | Text Only | Print | Product List | Glossary Off
Versions: 1 2 3 4 5 6 7 8 9 10 11 12 13 14 15 16

269
FTUS43 KBIS 191127
TAFMOT
TAF
KMOT 191127Z 1912/2012 24011KT P6SM BKN090 OVC110
     FM191600 26011KT P6SM BKN180
     FM191900 25011KT P6SM FEW200=

USA.gov is the U.S. government's official web portal to all federal, state and local government web resources and services.